createdAt,value
2023-01-11T00:00:30.402Z,100.00
2023-01-11T00:02:58.950Z,100.00
2023-01-11T00:05:28.624Z,100.00
2023-01-11T00:07:57.369Z,100.00
2023-01-11T00:10:30.418Z,100.00
2023-01-11T00:12:56.766Z,100.00
2023-01-11T00:15:26.163Z,100.00
2023-01-11T00:17:55.410Z,100.00
2023-01-11T00:20:21.778Z,100.00
2023-01-11T00:23:07.197Z,100.00
2023-01-11T00:25:33.667Z,100.00
2023-01-11T00:28:00.021Z,100.00
2023-01-11T00:30:26.554Z,100.00
2023-01-11T00:32:57.537Z,100.00
2023-01-11T00:35:25.079Z,100.00
2023-01-11T00:37:55.901Z,100.00
2023-01-11T00:40:25.761Z,100.00
2023-01-11T00:43:11.010Z,100.00
2023-01-11T00:48:38.616Z,100.00
2023-01-11T00:51:05.730Z,100.00
2023-01-11T00:53:35.230Z,100.00
2023-01-11T00:56:05.054Z,100.00
2023-01-11T00:58:31.404Z,100.00
2023-01-11T01:00:58.652Z,100.00
2023-01-11T01:03:27.667Z,100.00
2023-01-11T01:05:55.321Z,100.00
2023-01-11T01:08:21.738Z,100.00
2023-01-11T01:10:55.901Z,100.00
2023-01-11T01:13:43.851Z,100.00
2023-01-11T01:16:10.225Z,100.00
2023-01-11T01:21:19.843Z,100.00
2023-01-11T01:23:52.045Z,100.00
2023-01-11T01:26:21.911Z,100.00
2023-01-11T01:28:52.445Z,100.00
2023-01-11T01:31:18.864Z,100.00
2023-01-11T01:33:49.236Z,100.00
2023-01-11T01:36:15.598Z,100.00
2023-01-11T01:38:41.973Z,100.00
2023-01-11T01:41:08.883Z,100.00
2023-01-11T01:44:02.551Z,100.00
2023-01-11T01:46:36.191Z,100.00
2023-01-11T01:49:17.909Z,100.00
2023-01-11T01:51:52.350Z,100.00
2023-01-11T01:54:29.059Z,100.00
2023-01-11T01:57:01.862Z,100.00
2023-01-11T01:59:30.982Z,100.00
2023-01-11T02:01:57.762Z,100.00
2023-01-11T02:04:45.104Z,100.00
2023-01-11T02:07:23.033Z,100.00
2023-01-11T02:10:14.208Z,100.00
2023-01-11T02:12:59.092Z,100.00
2023-01-11T02:15:31.943Z,100.00
2023-01-11T02:17:58.429Z,100.00
2023-01-11T02:20:44.902Z,100.00
2023-01-11T02:23:44.850Z,100.00
2023-01-11T02:26:46.582Z,100.00
2023-01-11T02:29:31.395Z,100.00
2023-01-11T02:32:31.447Z,100.00
2023-01-11T02:35:21.641Z,100.00
2023-01-11T02:41:25.912Z,100.00
2023-01-11T02:44:16.060Z,100.00
2023-01-11T02:46:59.880Z,100.00
2023-01-11T02:49:56.759Z,100.00
2023-01-11T02:52:41.323Z,100.00
2023-01-11T02:55:18.953Z,100.00
2023-01-11T02:57:47.201Z,100.00
2023-01-11T03:00:16.856Z,100.00
2023-01-11T03:02:43.355Z,100.00
2023-01-11T03:05:19.193Z,100.00
2023-01-11T03:07:59.714Z,100.00
2023-01-11T03:11:06.470Z,100.00
2023-01-11T03:14:00.705Z,100.00
2023-01-11T03:17:05.190Z,100.00
2023-01-11T03:19:43.673Z,100.00
2023-01-11T03:22:17.714Z,100.00
2023-01-11T03:25:16.250Z,100.00
2023-01-11T03:28:10.797Z,100.00
2023-01-11T03:30:58.679Z,100.00
2023-01-11T03:33:38.736Z,100.00
2023-01-11T03:36:33.118Z,100.00
2023-01-11T03:39:26.591Z,100.00
2023-01-11T03:41:57.246Z,100.00
2023-01-11T03:47:19.836Z,100.00
2023-01-11T03:49:53.266Z,100.00
2023-01-11T03:52:29.950Z,100.00
2023-01-11T03:55:05.724Z,100.00
2023-01-11T03:57:36.183Z,100.00
2023-01-11T04:00:07.568Z,100.00
2023-01-11T04:02:48.076Z,100.00
2023-01-11T04:05:17.303Z,100.00
2023-01-11T04:07:43.650Z,100.00
2023-01-11T04:10:21.561Z,100.00
2023-01-11T04:12:55.459Z,100.00
2023-01-11T04:15:21.813Z,100.00
2023-01-11T04:17:48.152Z,100.00
2023-01-11T04:20:17.651Z,100.00
2023-01-11T04:22:46.783Z,100.00
2023-01-11T04:25:13.215Z,100.00
2023-01-11T04:27:42.920Z,100.00
2023-01-11T04:30:09.864Z,100.00
2023-01-11T04:32:36.242Z,100.00
2023-01-11T04:35:10.984Z,100.00
2023-01-11T04:37:37.473Z,100.00
2023-01-11T04:40:09.713Z,100.00
2023-01-11T04:42:36.377Z,100.00
2023-01-11T04:45:06.037Z,100.00
2023-01-11T04:47:34.078Z,100.00
2023-01-11T04:50:00.500Z,100.00
2023-01-11T04:52:26.903Z,100.00
2023-01-11T04:54:56.758Z,100.00
2023-01-11T04:57:25.902Z,100.00
2023-01-11T04:59:56.170Z,100.00
2023-01-11T05:02:29.784Z,100.00
2023-01-11T05:04:57.746Z,100.00
2023-01-11T05:07:24.097Z,100.00
2023-01-11T05:09:50.521Z,100.00
2023-01-11T05:12:16.866Z,100.00
2023-01-11T05:14:48.866Z,100.00
2023-01-11T05:17:16.228Z,100.00
2023-01-11T05:19:42.717Z,100.00
2023-01-11T05:22:12.533Z,100.00
2023-01-11T05:24:38.882Z,100.00
2023-01-11T05:27:08.556Z,100.00
2023-01-11T05:29:39.986Z,100.00
2023-01-11T05:32:06.428Z,100.00
2023-01-11T05:34:38.600Z,100.00
2023-01-11T05:37:04.972Z,100.00
2023-01-11T05:39:31.332Z,100.00
2023-01-11T05:42:01.922Z,100.00
2023-01-11T05:44:50.030Z,100.00
2023-01-11T05:47:16.396Z,100.00
2023-01-11T05:49:45.903Z,100.00
2023-01-11T05:52:16.040Z,100.00
2023-01-11T05:54:43.843Z,100.00
2023-01-11T05:57:16.050Z,100.00
2023-01-11T05:59:42.414Z,100.00
2023-01-11T06:02:17.341Z,100.00
2023-01-11T06:04:43.791Z,100.00
2023-01-11T06:07:15.971Z,100.00
2023-01-11T06:09:42.349Z,100.00
2023-01-11T06:12:08.798Z,100.00
2023-01-11T06:14:38.879Z,100.00
2023-01-11T06:17:08.084Z,100.00
2023-01-11T06:19:34.542Z,100.00
2023-01-11T06:22:04.695Z,100.00
2023-01-11T06:24:31.144Z,100.00
2023-01-11T06:26:57.498Z,100.00
2023-01-11T06:29:23.915Z,100.00
2023-01-11T06:31:50.287Z,100.00
2023-01-11T06:34:16.688Z,100.00
2023-01-11T06:36:43.130Z,100.00
2023-01-11T06:39:12.730Z,100.00
2023-01-11T06:41:41.921Z,100.00
2023-01-11T06:44:08.340Z,100.00
2023-01-11T06:46:37.962Z,100.00
2023-01-11T06:49:04.388Z,100.00
2023-01-11T06:51:30.840Z,100.00
2023-01-11T06:54:06.869Z,100.00
2023-01-11T06:56:33.215Z,100.00
2023-01-11T06:59:02.871Z,100.00
2023-01-11T07:01:32.570Z,100.00
2023-01-11T07:06:47.717Z,100.00
2023-01-11T07:09:16.933Z,100.00
2023-01-11T07:14:27.470Z,100.00
2023-01-11T07:16:53.807Z,100.00
2023-01-11T07:19:20.278Z,100.00
2023-01-11T07:21:46.680Z,100.00
2023-01-11T07:24:16.116Z,100.00
2023-01-11T07:26:45.586Z,100.00
2023-01-11T07:29:19.436Z,100.00
2023-01-11T07:31:48.597Z,100.00
2023-01-11T07:36:59.757Z,100.00
2023-01-11T07:39:38.440Z,100.00
2023-01-11T07:42:32.125Z,100.00
2023-01-11T07:44:58.520Z,100.00
2023-01-11T07:47:27.294Z,100.00
2023-01-11T07:49:56.587Z,100.00
2023-01-11T07:52:22.984Z,100.00
2023-01-11T07:54:53.575Z,100.00
2023-01-11T07:57:19.961Z,100.00
2023-01-11T07:59:46.334Z,100.00
2023-01-11T08:02:12.722Z,100.00
2023-01-11T08:04:39.080Z,100.00
2023-01-11T08:07:05.476Z,100.00
2023-01-11T08:09:31.946Z,100.00
2023-01-11T08:12:23.129Z,100.00
2023-01-11T08:14:49.466Z,100.00
2023-01-11T08:17:16.766Z,100.00
2023-01-11T08:19:46.333Z,100.00
2023-01-11T08:22:18.055Z,100.00
2023-01-11T08:24:44.925Z,100.00
2023-01-11T08:27:11.447Z,100.00
2023-01-11T08:29:38.087Z,100.00
2023-01-11T08:32:04.714Z,100.00
2023-01-11T08:40:03.285Z,100.00
2023-01-11T08:42:29.650Z,100.00
2023-01-11T08:45:01.849Z,100.00
2023-01-11T08:47:28.367Z,100.00
2023-01-11T08:49:54.868Z,100.00
2023-01-11T08:52:30.248Z,100.00
2023-01-11T08:54:56.677Z,100.00
2023-01-11T08:57:25.884Z,100.00
2023-01-11T08:59:55.036Z,100.00
2023-01-11T09:02:21.520Z,100.00
2023-01-11T09:04:50.934Z,100.00
2023-01-11T09:07:20.232Z,100.00
2023-01-11T09:09:50.199Z,100.00
2023-01-11T09:12:16.572Z,100.00
2023-01-11T09:14:43.020Z,100.00
2023-01-11T09:17:09.820Z,100.00
2023-01-11T09:19:39.337Z,100.00
2023-01-11T09:22:08.491Z,100.00
2023-01-11T09:24:35.921Z,100.00
2023-01-11T09:27:05.360Z,100.00
2023-01-11T09:29:37.473Z,100.00
2023-01-11T09:32:06.855Z,100.00
2023-01-11T09:34:33.356Z,100.00
2023-01-11T09:37:09.958Z,100.00
2023-01-11T09:39:37.093Z,100.00
2023-01-11T09:42:40.545Z,100.00
2023-01-11T09:48:28.738Z,100.00
2023-01-11T09:51:24.169Z,100.00
2023-01-11T09:54:07.950Z,100.00
2023-01-11T09:56:47.935Z,100.00
2023-01-11T09:59:26.347Z,100.00
2023-01-11T10:02:23.580Z,100.00
2023-01-11T10:05:09.364Z,100.00
2023-01-11T10:18:23.801Z,100.00
2023-01-11T10:18:52.867Z,100.00
2023-01-11T10:21:38.045Z,100.00
2023-01-11T10:24:46.576Z,100.00
2023-01-11T10:27:36.211Z,100.00
2023-01-11T10:30:52.109Z,100.00
2023-01-11T10:33:40.052Z,100.00
2023-01-11T10:36:39.592Z,100.00
2023-01-11T10:39:51.174Z,100.00
2023-01-11T10:42:32.891Z,100.00
2023-01-11T10:45:21.816Z,100.00
2023-01-11T10:51:19.634Z,100.00
2023-01-11T10:54:17.852Z,100.00
2023-01-11T10:57:18.139Z,100.00
2023-01-11T10:59:59.533Z,100.00
2023-01-11T11:02:42.554Z,100.00
2023-01-11T11:05:23.387Z,100.00
2023-01-11T11:07:59.595Z,100.00
2023-01-11T11:13:46.452Z,100.00
2023-01-11T11:16:30.427Z,100.00
2023-01-11T11:19:08.686Z,100.00
2023-01-11T11:21:41.937Z,100.00
2023-01-11T11:24:17.953Z,100.00
2023-01-11T11:26:54.123Z,100.00
2023-01-11T11:29:23.326Z,100.00
2023-01-11T11:31:58.628Z,100.00
2023-01-11T11:34:29.381Z,100.00
2023-01-11T11:37:00.387Z,100.00
2023-01-11T11:42:16.523Z,100.00
2023-01-11T11:45:06.845Z,100.00
2023-01-11T11:47:37.082Z,100.00
2023-01-11T11:50:43.664Z,100.00
2023-01-11T11:53:34.997Z,100.00
2023-01-11T11:56:36.025Z,100.00
2023-01-11T11:59:11.180Z,100.00
2023-01-11T12:01:47.729Z,100.00
2023-01-11T12:04:18.155Z,100.00
2023-01-11T12:07:08.929Z,100.00
2023-01-11T12:09:44.267Z,100.00
2023-01-11T12:12:20.771Z,100.00
2023-01-11T12:15:05.702Z,100.00
2023-01-11T12:20:47.980Z,100.00
2023-01-11T12:23:39.797Z,100.00
2023-01-11T12:26:30.084Z,100.00
2023-01-11T12:29:23.377Z,100.00
2023-01-11T12:32:24.283Z,100.00
2023-01-11T12:35:20.849Z,100.00
2023-01-11T12:38:16.503Z,100.00
2023-01-11T12:41:16.462Z,100.00
2023-01-11T12:44:10.300Z,100.00
2023-01-11T12:46:58.322Z,100.00
2023-01-11T12:49:43.645Z,100.00
2023-01-11T12:52:43.999Z,100.00
2023-01-11T12:55:36.611Z,100.00
2023-01-11T12:58:24.498Z,100.00
2023-01-11T13:01:19.070Z,98.73
2023-01-11T13:04:29.386Z,99.83
2023-01-11T13:07:24.472Z,100.00
2023-01-11T13:10:11.525Z,98.86
2023-01-11T13:12:57.035Z,99.18
2023-01-11T13:15:48.843Z,98.32
2023-01-11T13:18:37.217Z,97.90
2023-01-11T13:21:55.550Z,97.56
2023-01-11T13:24:33.441Z,97.12
2023-01-11T13:27:05.902Z,98.33
2023-01-11T13:29:42.507Z,97.64
2023-01-11T13:32:35.278Z,97.32
2023-01-11T13:36:00.056Z,97.81
2023-01-11T13:38:49.456Z,97.54
2023-01-11T13:41:50.750Z,96.39
2023-01-11T13:44:29.329Z,96.06
2023-01-11T13:47:26.014Z,96.21
2023-01-11T13:50:16.754Z,96.46
2023-01-11T13:53:04.541Z,96.10
2023-01-11T13:56:10.219Z,96.36
2023-01-11T13:59:31.724Z,94.79
2023-01-11T14:02:02.440Z,96.59
2023-01-11T14:04:54.506Z,96.11
2023-01-11T14:08:02.424Z,97.77
2023-01-11T14:10:45.164Z,97.42
2023-01-11T14:13:59.143Z,97.36
2023-01-11T14:16:51.259Z,96.78
2023-01-11T14:19:51.394Z,97.52
2023-01-11T14:22:51.873Z,99.13
2023-01-11T14:25:45.036Z,98.22
2023-01-11T14:28:36.123Z,99.33
2023-01-11T14:31:40.167Z,98.37
2023-01-11T14:34:15.686Z,98.30
2023-01-11T14:37:26.555Z,99.53
2023-01-11T14:40:11.547Z,99.77
2023-01-11T14:42:44.175Z,98.75
2023-01-11T14:45:16.046Z,98.64
2023-01-11T14:47:53.837Z,99.89
2023-01-11T14:50:35.196Z,100.00
2023-01-11T14:53:41.607Z,100.00
2023-01-11T14:56:41.954Z,100.00
2023-01-11T14:59:30.134Z,100.00
2023-01-11T15:02:02.671Z,100.00
2023-01-11T15:04:52.203Z,100.00
2023-01-11T15:07:28.378Z,100.00
2023-01-11T15:09:56.629Z,100.00
2023-01-11T15:12:52.415Z,100.00
2023-01-11T15:15:21.093Z,100.00
2023-01-11T15:18:21.599Z,100.00
2023-01-11T15:21:04.677Z,100.00
2023-01-11T15:23:37.750Z,100.00
2023-01-11T15:26:07.931Z,100.00
2023-01-11T15:28:40.300Z,100.00
2023-01-11T15:31:06.847Z,100.00
2023-01-11T15:33:53.673Z,100.00
2023-01-11T15:36:51.145Z,100.00
2023-01-11T15:39:42.510Z,100.00
2023-01-11T15:42:52.851Z,100.00
2023-01-11T15:46:09.624Z,100.00
2023-01-11T15:49:07.108Z,100.00
2023-01-11T15:52:08.733Z,100.00
2023-01-11T15:55:19.831Z,100.00
2023-01-11T15:58:15.313Z,100.00
2023-01-11T16:01:03.451Z,100.00
2023-01-11T16:03:52.186Z,100.00
2023-01-11T16:06:40.771Z,100.00
2023-01-11T16:09:28.674Z,100.00
2023-01-11T16:11:54.989Z,100.00
2023-01-11T16:14:52.208Z,100.00
2023-01-11T16:20:34.223Z,100.00
2023-01-11T16:23:03.368Z,100.00
2023-01-11T16:25:37.879Z,100.00
2023-01-11T16:28:08.377Z,100.00
2023-01-11T16:30:35.562Z,100.00
2023-01-11T16:33:27.058Z,100.00
2023-01-11T16:36:04.711Z,100.00
2023-01-11T16:38:38.604Z,100.00
2023-01-11T16:41:15.106Z,100.00
2023-01-11T16:44:01.444Z,100.00
2023-01-11T16:47:07.570Z,100.00
2023-01-11T16:49:34.393Z,100.00
2023-01-11T16:52:27.983Z,100.00
2023-01-11T16:57:48.818Z,100.00
2023-01-11T17:00:38.189Z,100.00
2023-01-11T17:03:19.182Z,100.00
2023-01-11T17:06:14.772Z,100.00
2023-01-11T17:08:43.230Z,100.00
2023-01-11T17:11:37.143Z,100.00
2023-01-11T17:14:34.202Z,100.00
2023-01-11T17:17:12.277Z,100.00
2023-01-11T17:19:46.865Z,100.00
2023-01-11T17:22:31.085Z,100.00
2023-01-11T17:25:04.819Z,100.00
2023-01-11T17:27:42.989Z,100.00
2023-01-11T17:30:19.151Z,100.00
2023-01-11T17:32:54.926Z,100.00
2023-01-11T17:38:11.074Z,100.00
2023-01-11T17:40:41.299Z,100.00
2023-01-11T17:44:01.250Z,100.00
2023-01-11T17:46:27.705Z,100.00
2023-01-11T17:49:01.770Z,100.00
2023-01-11T17:51:38.103Z,100.00
2023-01-11T17:54:19.545Z,100.00
2023-01-11T17:56:58.681Z,100.00
2023-01-11T17:59:30.136Z,100.00
2023-01-11T18:02:04.332Z,100.00
2023-01-11T18:04:33.619Z,100.00
2023-01-11T18:07:16.815Z,100.00
2023-01-11T18:09:56.484Z,100.00
2023-01-11T18:12:29.097Z,100.00
2023-01-11T18:15:01.773Z,100.00
2023-01-11T18:17:40.184Z,100.00
2023-01-11T18:20:16.061Z,100.00
2023-01-11T18:23:05.055Z,100.00
2023-01-11T18:25:37.123Z,100.00
2023-01-11T18:28:26.842Z,100.00
2023-01-11T19:16:25.062Z,100.00
2023-01-11T19:18:55.171Z,100.00
2023-01-11T19:21:24.502Z,100.00
2023-01-11T19:23:51.172Z,100.00
2023-01-11T19:26:19.875Z,100.00
2023-01-11T19:28:49.118Z,100.00
2023-01-11T19:31:15.652Z,100.00
2023-01-11T19:33:47.255Z,100.00
2023-01-11T19:36:13.669Z,100.00
2023-01-11T19:38:40.271Z,100.00
2023-01-11T19:41:16.773Z,100.00
2023-01-11T19:43:48.411Z,100.00
2023-01-11T19:46:30.683Z,100.00
2023-01-11T19:49:00.972Z,100.00
2023-01-11T19:51:27.404Z,100.00
2023-01-11T19:53:56.798Z,100.00
2023-01-11T19:56:26.210Z,100.00
2023-01-11T20:01:37.146Z,100.00
2023-01-11T20:04:06.883Z,100.00
2023-01-11T20:06:33.538Z,100.00
2023-01-11T20:09:04.923Z,100.00
2023-01-11T20:11:34.379Z,100.00
2023-01-11T20:14:03.368Z,100.00
2023-01-11T20:16:30.187Z,100.00
2023-01-11T20:18:57.371Z,100.00
2023-01-11T20:21:26.877Z,100.00
2023-01-11T20:23:55.405Z,100.00
2023-01-11T20:26:30.831Z,100.00
2023-01-11T20:29:00.676Z,100.00
2023-01-11T20:31:28.842Z,100.00
2023-01-11T20:34:20.413Z,100.00
2023-01-11T20:36:48.515Z,100.00
2023-01-11T20:39:19.878Z,100.00
2023-01-11T20:41:52.365Z,100.00
2023-01-11T20:44:26.328Z,100.00
2023-01-11T20:46:58.047Z,100.00
2023-01-11T20:49:34.479Z,100.00
2023-01-11T20:52:00.954Z,100.00
2023-01-11T20:54:38.902Z,100.00
2023-01-11T20:57:12.145Z,100.00
2023-01-11T20:59:38.564Z,100.00
2023-01-11T21:02:07.803Z,100.00
2023-01-11T21:04:35.685Z,100.00
2023-01-11T21:07:05.378Z,100.00
2023-01-11T21:09:33.937Z,100.00
2023-01-11T21:12:00.683Z,100.00
2023-01-11T21:14:27.062Z,100.00
2023-01-11T21:16:55.219Z,100.00
2023-01-11T21:19:22.466Z,100.00
2023-01-11T21:21:52.187Z,100.00
2023-01-11T21:24:18.714Z,100.00
2023-01-11T21:26:54.370Z,100.00
2023-01-11T21:29:20.805Z,100.00
2023-01-11T21:31:50.406Z,100.00
2023-01-11T21:34:19.635Z,100.00
2023-01-11T21:36:48.142Z,100.00
2023-01-11T21:39:20.327Z,100.00
2023-01-11T21:41:56.774Z,100.00
2023-01-11T21:44:29.263Z,100.00
2023-01-11T21:46:58.425Z,100.00
2023-01-11T21:49:28.056Z,100.00
2023-01-11T21:51:57.012Z,100.00
2023-01-11T21:54:29.704Z,100.00
2023-01-11T21:56:56.163Z,100.00
2023-01-11T21:59:26.792Z,100.00
2023-01-11T22:01:53.183Z,100.00
2023-01-11T22:04:20.655Z,100.00
2023-01-11T22:06:56.856Z,100.00
2023-01-11T22:09:25.655Z,100.00
2023-01-11T22:11:52.074Z,100.00
2023-01-11T22:14:21.709Z,100.00
2023-01-11T22:16:48.517Z,100.00
2023-01-11T22:19:18.029Z,100.00
2023-01-11T22:21:44.646Z,100.00
2023-01-11T22:24:12.127Z,100.00
2023-01-11T22:26:45.709Z,100.00
2023-01-11T22:29:12.158Z,100.00
2023-01-11T22:34:29.731Z,100.00
2023-01-11T22:36:56.883Z,100.00
2023-01-11T22:39:29.449Z,100.00
2023-01-11T22:41:55.794Z,100.00
2023-01-11T22:44:22.520Z,100.00
2023-01-11T22:46:49.578Z,100.00
2023-01-11T22:49:21.112Z,100.00
2023-01-11T22:51:56.620Z,100.00
2023-01-11T22:54:23.040Z,100.00
2023-01-11T22:56:49.437Z,100.00
2023-01-11T22:59:15.851Z,100.00
2023-01-11T23:01:49.698Z,100.00
2023-01-11T23:04:29.138Z,100.00
2023-01-11T23:06:59.621Z,100.00
2023-01-11T23:09:29.395Z,100.00
2023-01-11T23:12:14.705Z,100.00
2023-01-11T23:14:41.386Z,100.00
